Sun Valley, Arizona
Current Conditions -  °F | °C
As of 5:56 PM on Tuesday 27 Jan 2015 (Local Time) from KINW Reporting Station
Clear Clear  
Wind Chill: 55°   Ceiling: Unl
Heat Index: 55°   Visibility: 10mi
Dew Point: 36°   Wind: 9mph
Humidity: 49%   Direction: 210°SSW
Pressure: 30.25"   Gusts: NA
Location:  34.9°N, 110.16°W
Report Text: KINW 280056Z AUTO 21008KT 10SM CLR 13/02 A3025 RMK AO2 SLP226 T01280022
Loading
Personal Weather Stations






























Interactive Weather Map New forecast layout! Learn more

10-Day Weather Forecast

Advertisements
Track Severe Weather on mobile